sensor_id;sensor_type;location;lat;lon;timestamp;temperature;humidity
15700;DHT22;7950;42.744;23.174;2023-07-13T00:01:16;19.60;99.90
15700;DHT22;7950;42.744;23.174;2023-07-13T00:03:45;19.60;99.90
15700;DHT22;7950;42.744;23.174;2023-07-13T00:06:15;19.60;99.90
15700;DHT22;7950;42.744;23.174;2023-07-13T00:08:43;19.60;99.90
15700;DHT22;7950;42.744;23.174;2023-07-13T00:11:12;19.60;99.90
15700;DHT22;7950;42.744;23.174;2023-07-13T00:13:41;19.60;99.90
15700;DHT22;7950;42.744;23.174;2023-07-13T00:16:11;19.50;99.90
15700;DHT22;7950;42.744;23.174;2023-07-13T00:18:42;19.50;99.90
15700;DHT22;7950;42.744;23.174;2023-07-13T00:21:11;19.50;99.90
15700;DHT22;7950;42.744;23.174;2023-07-13T00:23:42;19.40;99.90
15700;DHT22;7950;42.744;23.174;2023-07-13T00:26:11;19.30;99.90
15700;DHT22;7950;42.744;23.174;2023-07-13T00:28:41;19.30;99.90
15700;DHT22;7950;42.744;23.174;2023-07-13T00:31:10;19.30;99.90
15700;DHT22;7950;42.744;23.174;2023-07-13T00:33:39;19.20;99.90
15700;DHT22;7950;42.744;23.174;2023-07-13T00:36:10;19.20;99.90
15700;DHT22;7950;42.744;23.174;2023-07-13T00:38:39;19.10;99.90
15700;DHT22;7950;42.744;23.174;2023-07-13T00:41:08;19.10;99.90
15700;DHT22;7950;42.744;23.174;2023-07-13T00:43:37;19.00;99.90
15700;DHT22;7950;42.744;23.174;2023-07-13T00:46:27;19.00;99.90
15700;DHT22;7950;42.744;23.174;2023-07-13T00:49:00;19.00;99.90
15700;DHT22;7950;42.744;23.174;2023-07-13T00:51:39;19.00;99.90
15700;DHT22;7950;42.744;23.174;2023-07-13T00:54:14;19.00;99.90
15700;DHT22;7950;42.744;23.174;2023-07-13T00:56:47;19.00;99.90
15700;DHT22;7950;42.744;23.174;2023-07-13T00:59:18;19.00;99.90
15700;DHT22;7950;42.744;23.174;2023-07-13T01:01:49;19.00;99.90
15700;DHT22;7950;42.744;23.174;2023-07-13T01:04:18;18.90;99.90
15700;DHT22;7950;42.744;23.174;2023-07-13T01:06:48;18.90;99.90
15700;DHT22;7950;42.744;23.174;2023-07-13T01:09:17;18.90;99.90
15700;DHT22;7950;42.744;23.174;2023-07-13T01:11:46;18.90;99.90
15700;DHT22;7950;42.744;23.174;2023-07-13T01:14:15;18.80;99.90
15700;DHT22;7950;42.744;23.174;2023-07-13T01:16:46;18.80;99.90
15700;DHT22;7950;42.744;23.174;2023-07-13T01:19:24;18.80;99.90
15700;DHT22;7950;42.744;23.174;2023-07-13T01:22:07;18.90;99.90
15700;DHT22;7950;42.744;23.174;2023-07-13T01:24:40;18.90;99.90
15700;DHT22;7950;42.744;23.174;2023-07-13T01:27:11;18.80;99.90
15700;DHT22;7950;42.744;23.174;2023-07-13T01:29:42;18.70;99.90
15700;DHT22;7950;42.744;23.174;2023-07-13T01:32:17;18.60;99.90
15700;DHT22;7950;42.744;23.174;2023-07-13T01:34:50;18.60;99.90
15700;DHT22;7950;42.744;23.174;2023-07-13T01:37:24;18.60;99.90
15700;DHT22;7950;42.744;23.174;2023-07-13T01:39:54;18.60;99.90
15700;DHT22;7950;42.744;23.174;2023-07-13T01:42:22;18.60;99.90
15700;DHT22;7950;42.744;23.174;2023-07-13T01:44:51;18.60;99.90
15700;DHT22;7950;42.744;23.174;2023-07-13T01:47:20;18.60;99.90
15700;DHT22;7950;42.744;23.174;2023-07-13T01:49:48;18.60;99.90
15700;DHT22;7950;42.744;23.174;2023-07-13T01:52:18;18.50;99.90
15700;DHT22;7950;42.744;23.174;2023-07-13T01:54:48;18.40;99.90
15700;DHT22;7950;42.744;23.174;2023-07-13T01:57:17;18.40;99.90
15700;DHT22;7950;42.744;23.174;2023-07-13T01:59:46;18.30;99.90
15700;DHT22;7950;42.744;23.174;2023-07-13T02:02:14;18.30;99.90
15700;DHT22;7950;42.744;23.174;2023-07-13T02:04:43;18.20;99.90
15700;DHT22;7950;42.744;23.174;2023-07-13T02:07:11;18.30;99.90
15700;DHT22;7950;42.744;23.174;2023-07-13T02:09:40;18.30;99.90
15700;DHT22;7950;42.744;23.174;2023-07-13T02:12:10;18.30;99.90
15700;DHT22;7950;42.744;23.174;2023-07-13T02:14:39;18.20;99.90
15700;DHT22;7950;42.744;23.174;2023-07-13T02:17:09;18.20;99.90
15700;DHT22;7950;42.744;23.174;2023-07-13T02:19:38;18.10;99.90
15700;DHT22;7950;42.744;23.174;2023-07-13T02:22:06;18.10;99.90
15700;DHT22;7950;42.744;23.174;2023-07-13T02:24:35;18.20;99.90
15700;DHT22;7950;42.744;23.174;2023-07-13T02:27:05;18.20;99.90
15700;DHT22;7950;42.744;23.174;2023-07-13T02:29:35;18.10;99.90
15700;DHT22;7950;42.744;23.174;2023-07-13T02:32:05;18.10;99.90
15700;DHT22;7950;42.744;23.174;2023-07-13T02:34:34;18.00;99.90
15700;DHT22;7950;42.744;23.174;2023-07-13T02:37:03;18.00;99.90
15700;DHT22;7950;42.744;23.174;2023-07-13T02:39:32;18.10;99.90
15700;DHT22;7950;42.744;23.174;2023-07-13T02:42:00;18.10;99.90
15700;DHT22;7950;42.744;23.174;2023-07-13T02:44:29;18.10;99.90
15700;DHT22;7950;42.744;23.174;2023-07-13T02:46:58;18.10;99.90
15700;DHT22;7950;42.744;23.174;2023-07-13T02:49:27;18.10;99.90
15700;DHT22;7950;42.744;23.174;2023-07-13T02:51:56;18.20;99.90
15700;DHT22;7950;42.744;23.174;2023-07-13T02:54:24;18.10;99.90
15700;DHT22;7950;42.744;23.174;2023-07-13T02:56:53;18.20;99.90
15700;DHT22;7950;42.744;23.174;2023-07-13T02:59:21;18.20;99.90
15700;DHT22;7950;42.744;23.174;2023-07-13T03:01:50;18.20;99.90
15700;DHT22;7950;42.744;23.174;2023-07-13T03:04:20;18.20;99.90
15700;DHT22;7950;42.744;23.174;2023-07-13T03:06:48;18.20;99.90
15700;DHT22;7950;42.744;23.174;2023-07-13T03:09:17;18.20;99.90
15700;DHT22;7950;42.744;23.174;2023-07-13T03:11:46;18.20;99.90
15700;DHT22;7950;42.744;23.174;2023-07-13T03:14:15;18.20;99.90
15700;DHT22;7950;42.744;23.174;2023-07-13T03:16:43;18.20;99.90
15700;DHT22;7950;42.744;23.174;2023-07-13T03:19:12;18.20;99.90
15700;DHT22;7950;42.744;23.174;2023-07-13T03:21:42;18.20;99.90
15700;DHT22;7950;42.744;23.174;2023-07-13T03:24:11;18.20;99.90
15700;DHT22;7950;42.744;23.174;2023-07-13T03:26:39;18.10;99.90
15700;DHT22;7950;42.744;23.174;2023-07-13T03:29:08;18.10;99.90
15700;DHT22;7950;42.744;23.174;2023-07-13T03:31:37;18.10;99.90
15700;DHT22;7950;42.744;23.174;2023-07-13T03:34:06;18.20;99.90
15700;DHT22;7950;42.744;23.174;2023-07-13T03:36:34;18.20;99.90
15700;DHT22;7950;42.744;23.174;2023-07-13T03:39:05;18.10;99.90
15700;DHT22;7950;42.744;23.174;2023-07-13T03:41:36;18.20;99.90
15700;DHT22;7950;42.744;23.174;2023-07-13T03:44:04;18.10;99.90
15700;DHT22;7950;42.744;23.174;2023-07-13T03:46:33;18.20;99.90
15700;DHT22;7950;42.744;23.174;2023-07-13T03:49:04;18.20;99.90
15700;DHT22;7950;42.744;23.174;2023-07-13T03:51:33;18.30;99.90
15700;DHT22;7950;42.744;23.174;2023-07-13T03:54:03;18.30;99.90
15700;DHT22;7950;42.744;23.174;2023-07-13T03:56:32;18.40;99.90
15700;DHT22;7950;42.744;23.174;2023-07-13T03:59:01;18.40;99.90
15700;DHT22;7950;42.744;23.174;2023-07-13T04:01:30;18.50;99.90
15700;DHT22;7950;42.744;23.174;2023-07-13T04:03:59;18.70;99.90
15700;DHT22;7950;42.744;23.174;2023-07-13T04:06:31;18.80;99.90
15700;DHT22;7950;42.744;23.174;2023-07-13T04:09:02;18.80;99.90
15700;DHT22;7950;42.744;23.174;2023-07-13T04:11:33;18.90;99.90
15700;DHT22;7950;42.744;23.174;2023-07-13T04:14:04;19.00;99.90
15700;DHT22;7950;42.744;23.174;2023-07-13T04:16:33;19.10;99.90
15700;DHT22;7950;42.744;23.174;2023-07-13T04:19:01;19.20;99.90
15700;DHT22;7950;42.744;23.174;2023-07-13T04:21:31;19.30;99.90
15700;DHT22;7950;42.744;23.174;2023-07-13T04:24:00;19.50;99.90
15700;DHT22;7950;42.744;23.174;2023-07-13T04:26:30;19.60;99.90
15700;DHT22;7950;42.744;23.174;2023-07-13T04:28:58;19.80;99.90
15700;DHT22;7950;42.744;23.174;2023-07-13T04:31:27;19.90;99.90
15700;DHT22;7950;42.744;23.174;2023-07-13T04:33:56;20.00;99.90
15700;DHT22;7950;42.744;23.174;2023-07-13T04:36:25;20.20;99.90
15700;DHT22;7950;42.744;23.174;2023-07-13T04:38:54;20.30;99.90
15700;DHT22;7950;42.744;23.174;2023-07-13T04:41:23;20.50;99.90
15700;DHT22;7950;42.744;23.174;2023-07-13T04:43:53;20.60;99.90
15700;DHT22;7950;42.744;23.174;2023-07-13T04:46:23;20.80;99.90
15700;DHT22;7950;42.744;23.174;2023-07-13T04:48:52;20.90;99.90
15700;DHT22;7950;42.744;23.174;2023-07-13T04:51:21;21.10;99.90
15700;DHT22;7950;42.744;23.174;2023-07-13T04:53:49;21.20;99.90
15700;DHT22;7950;42.744;23.174;2023-07-13T04:56:25;21.40;99.90
15700;DHT22;7950;42.744;23.174;2023-07-13T04:58:54;21.50;99.90
15700;DHT22;7950;42.744;23.174;2023-07-13T05:01:23;21.70;99.90
15700;DHT22;7950;42.744;23.174;2023-07-13T05:03:52;21.80;99.90
15700;DHT22;7950;42.744;23.174;2023-07-13T05:06:22;22.00;99.90
15700;DHT22;7950;42.744;23.174;2023-07-13T05:08:51;22.10;99.90
15700;DHT22;7950;42.744;23.174;2023-07-13T05:11:19;22.30;99.90
15700;DHT22;7950;42.744;23.174;2023-07-13T05:13:48;22.40;99.90
15700;DHT22;7950;42.744;23.174;2023-07-13T05:16:19;22.50;99.90
15700;DHT22;7950;42.744;23.174;2023-07-13T05:18:48;22.60;99.90
15700;DHT22;7950;42.744;23.174;2023-07-13T05:21:16;22.80;99.90
15700;DHT22;7950;42.744;23.174;2023-07-13T05:23:44;23.00;99.90
15700;DHT22;7950;42.744;23.174;2023-07-13T05:26:13;23.10;99.90
15700;DHT22;7950;42.744;23.174;2023-07-13T05:28:42;23.20;99.90
15700;DHT22;7950;42.744;23.174;2023-07-13T05:31:11;23.30;99.90
15700;DHT22;7950;42.744;23.174;2023-07-13T05:33:41;23.40;99.90
15700;DHT22;7950;42.744;23.174;2023-07-13T05:36:10;23.50;99.90
15700;DHT22;7950;42.744;23.174;2023-07-13T05:38:38;23.60;99.90
15700;DHT22;7950;42.744;23.174;2023-07-13T05:41:07;23.70;99.90
15700;DHT22;7950;42.744;23.174;2023-07-13T05:43:36;23.80;99.90
15700;DHT22;7950;42.744;23.174;2023-07-13T05:46:04;23.90;99.90
15700;DHT22;7950;42.744;23.174;2023-07-13T05:48:33;24.00;99.90
15700;DHT22;7950;42.744;23.174;2023-07-13T05:51:03;24.10;99.90
15700;DHT22;7950;42.744;23.174;2023-07-13T05:53:53;24.20;99.90
15700;DHT22;7950;42.744;23.174;2023-07-13T05:56:22;24.30;99.90
15700;DHT22;7950;42.744;23.174;2023-07-13T05:58:50;24.40;99.90
15700;DHT22;7950;42.744;23.174;2023-07-13T06:01:19;24.40;99.90
15700;DHT22;7950;42.744;23.174;2023-07-13T06:03:50;24.50;99.90
15700;DHT22;7950;42.744;23.174;2023-07-13T06:06:20;24.70;99.90
15700;DHT22;7950;42.744;23.174;2023-07-13T06:08:48;24.80;99.90
15700;DHT22;7950;42.744;23.174;2023-07-13T06:11:18;24.90;99.90
15700;DHT22;7950;42.744;23.174;2023-07-13T06:13:49;25.00;99.90
15700;DHT22;7950;42.744;23.174;2023-07-13T06:16:18;25.10;99.90
15700;DHT22;7950;42.744;23.174;2023-07-13T06:18:46;25.30;99.90
15700;DHT22;7950;42.744;23.174;2023-07-13T06:21:18;25.50;99.90
15700;DHT22;7950;42.744;23.174;2023-07-13T06:23:50;25.50;99.90
15700;DHT22;7950;42.744;23.174;2023-07-13T06:26:20;25.60;99.90
15700;DHT22;7950;42.744;23.174;2023-07-13T06:28:49;25.60;99.90
15700;DHT22;7950;42.744;23.174;2023-07-13T06:31:17;25.70;99.90
15700;DHT22;7950;42.744;23.174;2023-07-13T06:33:46;25.80;99.90
15700;DHT22;7950;42.744;23.174;2023-07-13T06:36:15;25.80;99.90
15700;DHT22;7950;42.744;23.174;2023-07-13T06:38:45;26.00;99.90
15700;DHT22;7950;42.744;23.174;2023-07-13T06:41:13;26.20;99.90
15700;DHT22;7950;42.744;23.174;2023-07-13T06:43:42;26.30;99.90
15700;DHT22;7950;42.744;23.174;2023-07-13T06:58:15;26.40;99.90
15700;DHT22;7950;42.744;23.174;2023-07-13T07:00:45;27.10;99.90
15700;DHT22;7950;42.744;23.174;2023-07-13T07:03:14;27.00;99.90
15700;DHT22;7950;42.744;23.174;2023-07-13T07:05:42;27.00;99.90
15700;DHT22;7950;42.744;23.174;2023-07-13T07:08:11;27.00;99.90
15700;DHT22;7950;42.744;23.174;2023-07-13T07:10:40;27.20;99.90
15700;DHT22;7950;42.744;23.174;2023-07-13T07:13:09;27.30;99.90
15700;DHT22;7950;42.744;23.174;2023-07-13T07:15:39;27.60;99.90
15700;DHT22;7950;42.744;23.174;2023-07-13T07:18:08;27.70;99.90
15700;DHT22;7950;42.744;23.174;2023-07-13T07:20:37;27.80;99.90
15700;DHT22;7950;42.744;23.174;2023-07-13T07:23:05;27.80;99.90
15700;DHT22;7950;42.744;23.174;2023-07-13T07:25:34;27.90;99.90
15700;DHT22;7950;42.744;23.174;2023-07-13T07:28:08;28.00;99.90
15700;DHT22;7950;42.744;23.174;2023-07-13T07:30:43;28.10;99.90
15700;DHT22;7950;42.744;23.174;2023-07-13T07:33:15;28.30;99.90
15700;DHT22;7950;42.744;23.174;2023-07-13T07:35:46;28.50;99.90
15700;DHT22;7950;42.744;23.174;2023-07-13T07:38:17;28.60;99.90
15700;DHT22;7950;42.744;23.174;2023-07-13T07:40:49;28.70;99.90
15700;DHT22;7950;42.744;23.174;2023-07-13T07:43:20;28.80;98.70
15700;DHT22;7950;42.744;23.174;2023-07-13T07:45:50;28.80;99.90
15700;DHT22;7950;42.744;23.174;2023-07-13T07:48:19;29.00;98.50
15700;DHT22;7950;42.744;23.174;2023-07-13T07:50:47;29.10;98.10
15700;DHT22;7950;42.744;23.174;2023-07-13T07:53:17;29.20;98.60
15700;DHT22;7950;42.744;23.174;2023-07-13T07:55:45;29.30;99.00
15700;DHT22;7950;42.744;23.174;2023-07-13T07:58:17;29.60;97.90
15700;DHT22;7950;42.744;23.174;2023-07-13T08:00:50;29.80;96.30
15700;DHT22;7950;42.744;23.174;2023-07-13T08:03:21;29.90;95.00
15700;DHT22;7950;42.744;23.174;2023-07-13T08:05:53;30.00;95.20
15700;DHT22;7950;42.744;23.174;2023-07-13T08:08:25;30.10;95.30
15700;DHT22;7950;42.744;23.174;2023-07-13T08:10:54;30.30;93.40
15700;DHT22;7950;42.744;23.174;2023-07-13T08:13:27;30.30;92.00
15700;DHT22;7950;42.744;23.174;2023-07-13T08:15:57;30.40;91.00
15700;DHT22;7950;42.744;23.174;2023-07-13T08:18:26;30.40;92.40
15700;DHT22;7950;42.744;23.174;2023-07-13T08:20:55;30.50;93.60
15700;DHT22;7950;42.744;23.174;2023-07-13T08:23:25;30.70;91.60
15700;DHT22;7950;42.744;23.174;2023-07-13T08:25:55;30.80;92.50
15700;DHT22;7950;42.744;23.174;2023-07-13T08:28:24;30.80;92.10
15700;DHT22;7950;42.744;23.174;2023-07-13T08:30:52;31.00;92.30
15700;DHT22;7950;42.744;23.174;2023-07-13T08:33:22;31.00;91.30
15700;DHT22;7950;42.744;23.174;2023-07-13T08:35:51;30.90;88.30
15700;DHT22;7950;42.744;23.174;2023-07-13T08:38:20;30.90;88.60
15700;DHT22;7950;42.744;23.174;2023-07-13T08:40:55;31.00;86.10
15700;DHT22;7950;42.744;23.174;2023-07-13T08:43:27;31.10;85.10
15700;DHT22;7950;42.744;23.174;2023-07-13T08:46:04;31.30;68.40
15700;DHT22;7950;42.744;23.174;2023-07-13T08:48:41;31.30;68.10
15700;DHT22;7950;42.744;23.174;2023-07-13T08:51:30;31.40;67.00
15700;DHT22;7950;42.744;23.174;2023-07-13T08:54:05;31.50;70.70
15700;DHT22;7950;42.744;23.174;2023-07-13T08:56:40;31.70;69.90
15700;DHT22;7950;42.744;23.174;2023-07-13T08:59:14;32.00;73.90
15700;DHT22;7950;42.744;23.174;2023-07-13T09:01:58;32.30;73.90
15700;DHT22;7950;42.744;23.174;2023-07-13T09:04:42;32.50;72.50
15700;DHT22;7950;42.744;23.174;2023-07-13T09:07:22;32.60;71.60
15700;DHT22;7950;42.744;23.174;2023-07-13T09:10:11;32.70;69.70
15700;DHT22;7950;42.744;23.174;2023-07-13T09:12:55;32.90;71.90
15700;DHT22;7950;42.744;23.174;2023-07-13T09:15:35;32.90;72.60
15700;DHT22;7950;42.744;23.174;2023-07-13T09:18:10;32.80;73.60
15700;DHT22;7950;42.744;23.174;2023-07-13T09:20:49;33.00;68.50
15700;DHT22;7950;42.744;23.174;2023-07-13T09:23:23;33.10;56.10
15700;DHT22;7950;42.744;23.174;2023-07-13T09:25:55;33.10;55.40
15700;DHT22;7950;42.744;23.174;2023-07-13T09:28:34;33.20;56.20
15700;DHT22;7950;42.744;23.174;2023-07-13T09:31:11;33.30;56.20
15700;DHT22;7950;42.744;23.174;2023-07-13T09:33:43;33.40;54.50
15700;DHT22;7950;42.744;23.174;2023-07-13T09:36:21;33.40;55.70
15700;DHT22;7950;42.744;23.174;2023-07-13T09:38:58;33.40;54.00
15700;DHT22;7950;42.744;23.174;2023-07-13T09:41:39;33.30;52.40
15700;DHT22;7950;42.744;23.174;2023-07-13T09:44:15;33.40;55.40
15700;DHT22;7950;42.744;23.174;2023-07-13T09:46:46;33.50;53.80
15700;DHT22;7950;42.744;23.174;2023-07-13T09:49:24;33.60;54.70
15700;DHT22;7950;42.744;23.174;2023-07-13T09:52:00;33.60;55.60
15700;DHT22;7950;42.744;23.174;2023-07-13T09:54:34;33.60;53.00
15700;DHT22;7950;42.744;23.174;2023-07-13T09:57:13;33.40;53.00
15700;DHT22;7950;42.744;23.174;2023-07-13T09:59:47;33.40;54.20
15700;DHT22;7950;42.744;23.174;2023-07-13T10:02:29;33.40;52.90
15700;DHT22;7950;42.744;23.174;2023-07-13T10:05:02;33.60;50.40
15700;DHT22;7950;42.744;23.174;2023-07-13T10:07:44;33.60;51.00
15700;DHT22;7950;42.744;23.174;2023-07-13T10:10:14;33.70;52.10
15700;DHT22;7950;42.744;23.174;2023-07-13T10:12:44;33.70;53.80
15700;DHT22;7950;42.744;23.174;2023-07-13T10:15:17;33.80;51.10
15700;DHT22;7950;42.744;23.174;2023-07-13T10:17:52;33.80;51.80
15700;DHT22;7950;42.744;23.174;2023-07-13T10:20:26;33.80;52.90
15700;DHT22;7950;42.744;23.174;2023-07-13T10:22:59;33.90;52.80
15700;DHT22;7950;42.744;23.174;2023-07-13T10:25:32;34.00;52.80
15700;DHT22;7950;42.744;23.174;2023-07-13T10:28:11;34.00;54.20
15700;DHT22;7950;42.744;23.174;2023-07-13T10:30:56;34.10;51.00
15700;DHT22;7950;42.744;23.174;2023-07-13T10:33:27;34.20;52.70
15700;DHT22;7950;42.744;23.174;2023-07-13T10:36:03;34.20;52.50
15700;DHT22;7950;42.744;23.174;2023-07-13T10:38:45;34.20;50.30
15700;DHT22;7950;42.744;23.174;2023-07-13T10:41:19;34.20;52.50
15700;DHT22;7950;42.744;23.174;2023-07-13T10:43:52;34.20;51.50
15700;DHT22;7950;42.744;23.174;2023-07-13T10:46:25;34.30;51.60
15700;DHT22;7950;42.744;23.174;2023-07-13T10:48:59;34.30;51.80
15700;DHT22;7950;42.744;23.174;2023-07-13T10:51:33;34.50;51.10
15700;DHT22;7950;42.744;23.174;2023-07-13T10:54:19;34.60;51.10
15700;DHT22;7950;42.744;23.174;2023-07-13T10:56:52;34.50;49.70
15700;DHT22;7950;42.744;23.174;2023-07-13T10:59:34;34.40;51.40
15700;DHT22;7950;42.744;23.174;2023-07-13T11:02:11;34.20;49.70
15700;DHT22;7950;42.744;23.174;2023-07-13T11:04:46;34.20;51.50
15700;DHT22;7950;42.744;23.174;2023-07-13T11:07:21;34.20;48.80
15700;DHT22;7950;42.744;23.174;2023-07-13T11:09:54;34.20;50.80
15700;DHT22;7950;42.744;23.174;2023-07-13T11:12:50;34.30;51.90
15700;DHT22;7950;42.744;23.174;2023-07-13T11:15:43;34.40;50.20
15700;DHT22;7950;42.744;23.174;2023-07-13T11:18:23;34.40;49.00
15700;DHT22;7950;42.744;23.174;2023-07-13T11:21:13;34.40;49.00
15700;DHT22;7950;42.744;23.174;2023-07-13T11:24:03;34.40;46.60
15700;DHT22;7950;42.744;23.174;2023-07-13T11:26:51;34.40;50.40
15700;DHT22;7950;42.744;23.174;2023-07-13T11:29:35;34.30;49.90
15700;DHT22;7950;42.744;23.174;2023-07-13T11:32:22;34.40;49.50
15700;DHT22;7950;42.744;23.174;2023-07-13T11:34:54;34.50;49.10
15700;DHT22;7950;42.744;23.174;2023-07-13T11:37:23;34.60;49.70
15700;DHT22;7950;42.744;23.174;2023-07-13T11:39:52;34.70;47.00
15700;DHT22;7950;42.744;23.174;2023-07-13T11:42:23;34.70;47.10
15700;DHT22;7950;42.744;23.174;2023-07-13T11:44:52;34.60;47.50
15700;DHT22;7950;42.744;23.174;2023-07-13T11:47:40;34.60;45.60
15700;DHT22;7950;42.744;23.174;2023-07-13T11:50:18;34.70;49.20
15700;DHT22;7950;42.744;23.174;2023-07-13T11:52:49;34.70;47.70
15700;DHT22;7950;42.744;23.174;2023-07-13T11:55:22;34.60;48.90
15700;DHT22;7950;42.744;23.174;2023-07-13T11:57:58;34.70;50.30
15700;DHT22;7950;42.744;23.174;2023-07-13T12:00:32;34.70;49.40
15700;DHT22;7950;42.744;23.174;2023-07-13T12:03:03;34.80;46.40
15700;DHT22;7950;42.744;23.174;2023-07-13T12:05:33;34.90;48.40
15700;DHT22;7950;42.744;23.174;2023-07-13T12:08:09;34.90;49.50
15700;DHT22;7950;42.744;23.174;2023-07-13T12:10:56;35.00;50.10
15700;DHT22;7950;42.744;23.174;2023-07-13T12:13:29;35.10;49.10
15700;DHT22;7950;42.744;23.174;2023-07-13T12:15:57;35.10;49.20
15700;DHT22;7950;42.744;23.174;2023-07-13T12:18:29;35.00;49.30
15700;DHT22;7950;42.744;23.174;2023-07-13T12:21:01;35.10;48.60
15700;DHT22;7950;42.744;23.174;2023-07-13T12:23:33;35.00;49.00
15700;DHT22;7950;42.744;23.174;2023-07-13T12:26:05;35.00;49.70
15700;DHT22;7950;42.744;23.174;2023-07-13T12:28:43;35.00;49.00
15700;DHT22;7950;42.744;23.174;2023-07-13T12:31:26;35.00;49.10
15700;DHT22;7950;42.744;23.174;2023-07-13T12:34:01;35.10;49.60
15700;DHT22;7950;42.744;23.174;2023-07-13T12:36:34;35.10;49.50
15700;DHT22;7950;42.744;23.174;2023-07-13T12:39:12;35.20;49.60
15700;DHT22;7950;42.744;23.174;2023-07-13T12:41:43;35.30;47.20
15700;DHT22;7950;42.744;23.174;2023-07-13T12:44:15;35.30;46.50
15700;DHT22;7950;42.744;23.174;2023-07-13T12:46:57;35.20;47.60
15700;DHT22;7950;42.744;23.174;2023-07-13T12:49:33;35.20;48.20
15700;DHT22;7950;42.744;23.174;2023-07-13T12:52:04;35.10;47.40
15700;DHT22;7950;42.744;23.174;2023-07-13T12:54:51;35.10;47.50
15700;DHT22;7950;42.744;23.174;2023-07-13T12:57:39;35.10;48.30
15700;DHT22;7950;42.744;23.174;2023-07-13T13:00:31;35.10;48.10
15700;DHT22;7950;42.744;23.174;2023-07-13T13:03:07;35.10;47.00
15700;DHT22;7950;42.744;23.174;2023-07-13T13:06:01;35.20;48.80
15700;DHT22;7950;42.744;23.174;2023-07-13T13:08:31;35.30;48.00
15700;DHT22;7950;42.744;23.174;2023-07-13T13:11:01;35.30;47.20
15700;DHT22;7950;42.744;23.174;2023-07-13T13:13:30;35.20;47.00
15700;DHT22;7950;42.744;23.174;2023-07-13T13:16:04;35.10;47.40
15700;DHT22;7950;42.744;23.174;2023-07-13T13:18:38;35.10;48.80
15700;DHT22;7950;42.744;23.174;2023-07-13T13:21:06;35.10;47.40
15700;DHT22;7950;42.744;23.174;2023-07-13T13:23:36;35.00;48.50
15700;DHT22;7950;42.744;23.174;2023-07-13T13:26:10;35.00;46.90
15700;DHT22;7950;42.744;23.174;2023-07-13T13:28:40;35.10;47.80
15700;DHT22;7950;42.744;23.174;2023-07-13T13:31:10;35.10;47.90
15700;DHT22;7950;42.744;23.174;2023-07-13T13:33:42;35.00;46.90
15700;DHT22;7950;42.744;23.174;2023-07-13T13:36:15;35.10;48.60
15700;DHT22;7950;42.744;23.174;2023-07-13T13:38:45;35.20;47.20
15700;DHT22;7950;42.744;23.174;2023-07-13T13:41:15;35.30;47.10
15700;DHT22;7950;42.744;23.174;2023-07-13T13:43:44;35.30;47.40
15700;DHT22;7950;42.744;23.174;2023-07-13T13:46:18;35.30;48.20
15700;DHT22;7950;42.744;23.174;2023-07-13T13:48:49;35.30;46.80
15700;DHT22;7950;42.744;23.174;2023-07-13T13:51:20;35.30;46.20
15700;DHT22;7950;42.744;23.174;2023-07-13T13:53:50;35.30;47.40
15700;DHT22;7950;42.744;23.174;2023-07-13T13:56:20;35.30;47.00
15700;DHT22;7950;42.744;23.174;2023-07-13T13:58:49;35.30;46.20
15700;DHT22;7950;42.744;23.174;2023-07-13T14:01:20;35.30;47.30
15700;DHT22;7950;42.744;23.174;2023-07-13T14:03:51;35.20;46.60
15700;DHT22;7950;42.744;23.174;2023-07-13T14:06:20;35.20;46.90
15700;DHT22;7950;42.744;23.174;2023-07-13T14:08:49;35.20;48.20
15700;DHT22;7950;42.744;23.174;2023-07-13T14:11:20;35.30;47.30
15700;DHT22;7950;42.744;23.174;2023-07-13T14:13:52;35.20;47.20
15700;DHT22;7950;42.744;23.174;2023-07-13T14:16:28;35.20;46.30
15700;DHT22;7950;42.744;23.174;2023-07-13T14:18:58;35.30;46.70
15700;DHT22;7950;42.744;23.174;2023-07-13T14:21:29;35.30;47.60
15700;DHT22;7950;42.744;23.174;2023-07-13T14:23:58;35.30;48.20
15700;DHT22;7950;42.744;23.174;2023-07-13T14:26:26;35.30;47.30
15700;DHT22;7950;42.744;23.174;2023-07-13T14:28:56;35.30;47.80
15700;DHT22;7950;42.744;23.174;2023-07-13T14:31:27;35.30;47.80
15700;DHT22;7950;42.744;23.174;2023-07-13T14:33:57;35.30;47.70
15700;DHT22;7950;42.744;23.174;2023-07-13T14:36:29;35.30;47.10
15700;DHT22;7950;42.744;23.174;2023-07-13T14:39:01;35.30;48.10
15700;DHT22;7950;42.744;23.174;2023-07-13T14:41:38;35.30;48.20
15700;DHT22;7950;42.744;23.174;2023-07-13T14:44:12;35.30;48.90
15700;DHT22;7950;42.744;23.174;2023-07-13T14:46:43;35.20;47.70
15700;DHT22;7950;42.744;23.174;2023-07-13T14:49:28;35.20;47.20
15700;DHT22;7950;42.744;23.174;2023-07-13T14:52:00;35.20;47.80
15700;DHT22;7950;42.744;23.174;2023-07-13T14:54:30;35.20;48.40
15700;DHT22;7950;42.744;23.174;2023-07-13T14:56:59;35.10;49.60
15700;DHT22;7950;42.744;23.174;2023-07-13T14:59:28;35.10;49.70
15700;DHT22;7950;42.744;23.174;2023-07-13T15:01:59;35.00;49.20
15700;DHT22;7950;42.744;23.174;2023-07-13T15:04:29;35.00;49.60
15700;DHT22;7950;42.744;23.174;2023-07-13T15:07:00;35.00;50.30
15700;DHT22;7950;42.744;23.174;2023-07-13T15:09:30;35.00;49.20
15700;DHT22;7950;42.744;23.174;2023-07-13T15:11:59;34.90;49.20
15700;DHT22;7950;42.744;23.174;2023-07-13T15:14:27;34.90;50.50
15700;DHT22;7950;42.744;23.174;2023-07-13T15:17:00;34.80;49.70
15700;DHT22;7950;42.744;23.174;2023-07-13T15:19:31;34.80;51.50
15700;DHT22;7950;42.744;23.174;2023-07-13T15:22:00;34.80;50.20
15700;DHT22;7950;42.744;23.174;2023-07-13T15:24:29;34.80;50.10
15700;DHT22;7950;42.744;23.174;2023-07-13T15:26:58;34.80;51.10
15700;DHT22;7950;42.744;23.174;2023-07-13T15:29:26;34.80;50.70
15700;DHT22;7950;42.744;23.174;2023-07-13T15:31:55;34.70;50.50
15700;DHT22;7950;42.744;23.174;2023-07-13T15:34:26;34.70;51.30
15700;DHT22;7950;42.744;23.174;2023-07-13T15:36:54;34.60;51.40
15700;DHT22;7950;42.744;23.174;2023-07-13T15:39:23;34.60;50.40
15700;DHT22;7950;42.744;23.174;2023-07-13T15:41:52;34.60;50.10
15700;DHT22;7950;42.744;23.174;2023-07-13T15:44:25;34.60;50.70
15700;DHT22;7950;42.744;23.174;2023-07-13T15:46:55;34.60;50.60
15700;DHT22;7950;42.744;23.174;2023-07-13T15:49:26;34.60;51.40
15700;DHT22;7950;42.744;23.174;2023-07-13T15:51:54;34.60;52.00
15700;DHT22;7950;42.744;23.174;2023-07-13T15:54:24;34.60;52.00
15700;DHT22;7950;42.744;23.174;2023-07-13T15:56:54;34.50;51.40
15700;DHT22;7950;42.744;23.174;2023-07-13T15:59:23;34.50;52.20
15700;DHT22;7950;42.744;23.174;2023-07-13T16:01:52;34.40;52.60
15700;DHT22;7950;42.744;23.174;2023-07-13T16:04:20;34.40;53.70
15700;DHT22;7950;42.744;23.174;2023-07-13T16:06:51;34.40;54.20
15700;DHT22;7950;42.744;23.174;2023-07-13T16:09:22;34.30;54.10
15700;DHT22;7950;42.744;23.174;2023-07-13T16:11:53;34.30;55.40